Portada
METAR-TAF:

METAR-TAF

Aeropuertos :

Aeropuerto Internacional de La Chinita

Maracaibo, Venezuela

latitud: 10-34N, longitud: 071-44W, altitud: 66 m

Observación

El informe se hizo hace 38 minutos, a las 03:03 UTC
Viento 10 kt del noreste
Temperatura 30°C
Humedad 75%
Presión 1010 hPa

METAR: SVMC 230303Z AUTO 04010KT NCD 30/25 Q1010

Hora: 23:41 (03:41 UTC)

Pronóstico

El informe se hizo hace 5 horas y 41 minutos, a las 22:00 UTC
Pronóstico válido del 23 a las 00 UTC al 24 a las 00 UTC
Viento 6 kt del sureste
Visibilidad 10 km o más
Nubes dispersas a una altura de 1300 ft
Temporalmente
del 23 a las 00 UTC al 23 a las 04 UTC
Viento 3 kt del este
Visibilidad: 8000 m
Cielo nuboso a una altura de 1300 ft, Cumulonimbus.
tormenta, llovizna,

TAF: SVMC 222200Z 2300/2400 14006KT 9999 SCT013 TX35/2219Z TN24/2307Z TEMPO 2300/2304 09003KT 8000 TSDZ BKN013CB

Observaciones y pronósticos meteorológicos de más de 4000 aeropuertos (mensajes METAR y TAF).

Los puntos amarillos y rojos representan las estaciones disponibles.

Ponga el ratón en el punto deseado para ver el nombre de la estación.

Haga clic para ver las observaciones y los pronósticos meteorológicos.

Para cambiar el mapa : haga clic en los botones verdes con una cruz de color negro para hacer un zoom, en el botón verde con un guión para alejar o en las flechas verdes para mapas adyacentes.


METAR-TAF: